Time;durP1;ratioP1;P1;durP2;ratioP2;P2;SDS_P1;SDS_P2;PMS_P1;PMS_P2;Temp;Humidity;BMP_temperature;BMP_pressure;BME280_temperature;BME280_humidity;BME280_pressure;Samples;Min_cycle;Max_cycle;Signal;HPM_P1;HPM_P2
2022/11/03 00:02:22;;;;;;;5.07;0.98;;;;;;;6.93;100.00;98870.31;4860212;29;20041;-87
2022/11/03 00:04:52;;;;;;;3.88;1.17;;;;;;;6.96;100.00;98864.72;4877629;29;20482;-88
2022/11/03 00:07:22;;;;;;;7.15;1.13;;;;;;;6.97;100.00;98858.50;4861355;29;20406;-88
2022/11/03 00:09:52;;;;;;;10.27;0.95;;;;;;;7.00;100.00;98860.81;4891718;29;20037;-88
2022/11/03 00:12:22;;;;;;;5.70;1.10;;;;;;;7.02;100.00;98850.97;4870876;29;20103;-88
2022/11/03 00:14:52;;;;;;;7.78;0.93;;;;;;;7.07;100.00;98863.63;4847205;29;20041;-87
2022/11/03 00:17:21;;;;;;;7.60;0.77;;;;;;;7.08;100.00;98860.00;4861876;29;20057;-88
2022/11/03 00:19:50;;;;;;;5.05;0.70;;;;;;;7.06;100.00;98857.56;4876356;29;20036;-88
2022/11/03 00:22:18;;;;;;;4.57;0.80;;;;;;;7.03;100.00;98857.03;4863616;29;20864;-88
2022/11/03 00:24:46;;;;;;;7.15;1.00;;;;;;;7.01;100.00;98853.75;4879684;29;20074;-87
2022/11/03 00:27:14;;;;;;;3.78;0.80;;;;;;;6.94;100.00;98845.69;4877132;29;20553;-88
2022/11/03 00:29:41;;;;;;;5.30;0.80;;;;;;;6.89;100.00;98842.72;4893999;29;20032;-88
2022/11/03 00:32:09;;;;;;;7.20;0.70;;;;;;;6.85;100.00;98841.41;4864491;29;20031;-87
2022/11/03 00:34:39;;;;;;;11.02;0.98;;;;;;;6.81;100.00;98840.91;4864959;29;20041;-87
2022/11/03 00:37:07;;;;;;;8.77;1.15;;;;;;;6.74;100.00;98838.09;4860654;29;20056;-88
2022/11/03 00:39:36;;;;;;;7.05;1.33;;;;;;;6.68;100.00;98828.22;4875161;29;20033;-86
2022/11/03 00:42:05;;;;;;;5.88;0.93;;;;;;;6.61;100.00;98821.97;4862821;29;20386;-87
2022/11/03 00:44:33;;;;;;;5.65;1.00;;;;;;;6.55;100.00;98818.16;4878154;29;20600;-88
2022/11/03 00:47:01;;;;;;;4.53;1.15;;;;;;;6.49;100.00;98811.75;4859119;29;20486;-87
2022/11/03 00:49:29;;;;;;;10.25;0.98;;;;;;;6.42;100.00;98805.47;4864424;29;20123;-88
2022/11/03 00:51:56;;;;;;;3.58;0.80;;;;;;;6.39;100.00;98804.00;4855397;29;20044;-88
2022/11/03 00:54:24;;;;;;;4.53;1.35;;;;;;;6.35;100.00;98810.56;4894107;29;20044;-88
2022/11/03 00:56:52;;;;;;;4.82;0.98;;;;;;;6.36;100.00;98803.47;4849004;29;20067;-88
2022/11/03 00:59:20;;;;;;;13.20;1.40;;;;;;;6.33;100.00;98802.84;4860124;29;20044;-88
2022/11/03 01:01:48;;;;;;;4.40;1.02;;;;;;;6.32;100.00;98798.53;4896013;29;20122;-87
2022/11/03 01:07:05;;;;;;;6.78;0.93;;;;;;;6.29;100.00;98788.38;4860619;29;20036;-87
2022/11/03 01:09:42;;;;;;;9.00;1.20;;;;;;;6.26;100.00;98787.88;4861131;29;20040;-87
2022/11/03 01:12:14;;;;;;;4.95;1.08;;;;;;;6.23;100.00;98786.38;4891879;29;20098;-88
2022/11/03 01:14:45;;;;;;;2.67;0.90;;;;;;;6.20;100.00;98786.69;4871051;29;20068;-88
2022/11/03 01:17:23;;;;;;;7.00;0.98;;;;;;;6.16;100.00;98778.31;4856514;29;20085;-88
2022/11/03 01:19:54;;;;;;;13.00;1.40;;;;;;;6.12;100.00;98784.84;4836052;29;20026;-87
2022/11/03 01:22:23;;;;;;;9.80;1.05;;;;;;;6.10;100.00;98786.81;4870539;29;20045;-88
2022/11/03 01:24:51;;;;;;;8.40;1.15;;;;;;;6.08;100.00;98780.91;4854934;29;20041;-88
2022/11/03 01:27:22;;;;;;;10.10;1.30;;;;;;;6.05;100.00;98779.41;4825190;29;20093;-87
2022/11/03 01:29:52;;;;;;;6.32;1.00;;;;;;;6.01;100.00;98779.84;4855603;29;20143;-88
2022/11/03 01:32:21;;;;;;;7.63;1.13;;;;;;;5.95;100.00;98771.63;4841518;29;20554;-88
2022/11/03 01:34:50;;;;;;;8.50;1.20;;;;;;;5.91;100.00;98774.72;4852847;29;20033;-87
2022/11/03 01:37:18;;;;;;;6.85;1.20;;;;;;;5.86;100.00;98771.75;4853838;29;20575;-88
2022/11/03 01:39:48;;;;;;;5.78;1.30;;;;;;;5.82;100.00;98779.91;4838830;29;20065;-87
2022/11/03 01:42:16;;;;;;;9.65;1.55;;;;;;;5.76;100.00;98766.59;4853024;29;20633;-87
2022/11/03 01:44:48;;;;;;;6.78;1.00;;;;;;;5.74;100.00;98772.00;4856610;29;20072;-87
2022/11/03 01:47:32;;;;;;;10.00;1.23;;;;;;;5.70;100.00;98758.38;4869756;29;20030;-87
2022/11/03 01:50:06;;;;;;;7.55;1.35;;;;;;;5.70;100.00;98762.81;4838649;29;20041;-87
2022/11/03 01:52:41;;;;;;;9.88;1.25;;;;;;;5.69;100.00;98754.13;4838724;29;20041;-87
2022/11/03 01:55:14;;;;;;;14.40;1.95;;;;;;;5.69;100.00;98754.13;4839430;29;20077;-87
2022/11/03 01:57:49;;;;;;;4.75;0.93;;;;;;;5.68;100.00;98742.00;4857288;29;20030;-87
2022/11/03 02:00:19;;;;;;;7.43;1.98;;;;;;;5.67;100.00;98740.34;4823951;29;20076;-87
2022/11/03 02:02:51;;;;;;;5.40;0.90;;;;;;;5.64;100.00;98738.03;4826886;29;20487;-88
2022/11/03 02:05:23;;;;;;;10.20;1.13;;;;;;;5.62;100.00;98734.75;4856522;29;20090;-88
2022/11/03 02:08:00;;;;;;;7.45;1.38;;;;;;;5.61;100.00;98732.25;4849891;29;20048;-88
2022/11/03 02:10:30;;;;;;;9.75;1.23;;;;;;;5.62;100.00;98733.91;4865854;29;20053;-87
2022/11/03 02:13:01;;;;;;;8.43;1.27;;;;;;;5.63;100.00;98728.53;4857801;29;20086;-87
2022/11/03 02:15:32;;;;;;;6.47;1.00;;;;;;;5.61;100.00;98724.38;4828492;29;20049;-87
2022/11/03 02:18:01;;;;;;;8.40;1.20;;;;;;;5.63;100.00;98730.31;4839704;29;20046;-87
2022/11/03 02:20:32;;;;;;;7.35;1.42;;;;;;;5.64;100.00;98739.84;4827674;29;20042;-88
2022/11/03 02:23:25;;;;;;;5.75;1.23;;;;;;;5.58;100.00;98728.97;4868155;29;20045;-87
2022/11/03 02:25:57;;;;;;;9.55;1.20;;;;;;;5.56;100.00;98724.84;4839910;29;20037;-88
2022/11/03 02:28:30;;;;;;;7.20;1.33;;;;;;;5.54;100.00;98727.63;4844727;29;20559;-88
2022/11/03 02:31:07;;;;;;;7.13;1.05;;;;;;;5.52;100.00;98729.59;4862389;29;20089;-89
2022/11/03 02:33:53;;;;;;;6.30;1.05;;;;;;;5.50;100.00;98731.56;4841846;29;20113;-88
2022/11/03 02:36:37;;;;;;;7.40;1.25;;;;;;;5.49;100.00;98713.34;4861201;29;20182;-88
2022/11/03 02:39:33;;;;;;;10.20;1.58;;;;;;;5.49;100.00;98701.09;4831905;29;20102;-88
2022/11/03 02:42:05;;;;;;;8.18;1.33;;;;;;;5.50;100.00;98701.88;4844648;29;20038;-87
2022/11/03 02:44:36;;;;;;;6.93;1.15;;;;;;;5.52;100.00;98705.19;4857073;29;20094;-88
2022/11/03 02:47:10;;;;;;;9.00;1.42;;;;;;;5.54;100.00;98698.81;4871974;29;20056;-88
2022/11/03 02:49:46;;;;;;;6.88;1.35;;;;;;;5.55;100.00;98699.63;4845204;29;20561;-88
2022/11/03 02:52:45;;;;;;;11.68;1.33;;;;;;;5.54;100.00;98700.63;4843128;29;20415;-87
2022/11/03 02:55:37;;;;;;;7.57;1.58;;;;;;;5.54;100.00;98700.63;4861870;29;20029;-87
2022/11/03 02:58:37;;;;;;;12.73;2.08;;;;;;;5.51;100.00;98696.50;4868991;29;20054;-87
2022/11/03 03:01:24;;;;;;;8.85;1.30;;;;;;;5.50;100.00;98692.25;4865169;29;20038;-87
2022/11/03 03:04:01;;;;;;;15.07;1.80;;;;;;;5.49;100.00;98681.91;4828541;29;20052;-88
2022/11/03 03:06:42;;;;;;;10.25;1.42;;;;;;;5.46;100.00;98683.06;4853889;29;20052;-89
2022/11/03 03:09:35;;;;;;;5.47;0.98;;;;;;;5.44;100.00;98688.44;4859578;29;20047;-88
2022/11/03 03:12:08;;;;;;;18.48;2.10;;;;;;;5.51;100.00;98691.25;4861949;29;20548;-87
2022/11/03 03:14:40;;;;;;;12.00;1.80;;;;;;;5.52;100.00;98689.47;4860702;29;20072;-87
2022/11/03 03:17:36;;;;;;;12.93;1.75;;;;;;;5.53;100.00;98684.06;4862597;29;20053;-87
2022/11/03 03:20:31;;;;;;;12.15;2.60;;;;;;;5.50;100.00;98684.38;4856841;29;20041;-88
2022/11/03 03:23:07;;;;;;;14.30;1.95;;;;;;;5.50;100.00;98671.28;4832850;29;20097;-89
2022/11/03 03:25:45;;;;;;;11.95;1.48;;;;;;;5.51;100.00;98665.03;4854660;29;20041;-88
2022/11/03 03:28:20;;;;;;;11.32;1.58;;;;;;;5.51;100.00;98664.25;4861662;29;20395;-88
2022/11/03 03:30:52;;;;;;;;;;;;;;;5.42;100.00;98661.56;4861082;29;20040;-88
2022/11/03 03:33:23;;;;;;;15.18;2.40;;;;;;;5.46;100.00;98660.28;4878532;29;19915;-88
2022/11/03 03:35:55;;;;;;;6.22;1.73;;;;;;;5.53;100.00;98659.66;4877427;29;20033;-88
2022/11/03 03:38:30;;;;;;;12.63;1.50;;;;;;;5.54;100.00;98653.44;4844319;29;20048;-88
2022/11/03 03:41:01;;;;;;;9.73;1.63;;;;;;;5.54;100.00;98653.44;4886935;29;20033;-88
2022/11/03 03:43:32;;;;;;;16.55;1.88;;;;;;;5.51;100.00;98641.47;4843112;29;20033;-87
2022/11/03 03:46:07;;;;;;;12.75;1.67;;;;;;;5.52;100.00;98639.66;4870802;29;20034;-88
2022/11/03 03:48:37;;;;;;;15.02;2.30;;;;;;;5.54;100.00;98637.72;4866792;29;20163;-89
2022/11/03 03:51:07;;;;;;;11.95;1.45;;;;;;;5.55;100.00;98639.34;4867482;29;20119;-88
2022/11/03 03:53:39;;;;;;;10.52;1.80;;;;;;;5.52;100.00;98635.25;4852564;29;20463;-88
2022/11/03 03:56:08;;;;;;;12.60;1.60;;;;;;;5.49;100.00;98635.56;4858972;29;20033;-86
2022/11/03 03:58:36;;;;;;;14.23;1.48;;;;;;;5.47;100.00;98637.53;4864217;29;20037;-88
2022/11/03 04:01:04;;;;;;;12.45;2.33;;;;;;;5.49;100.00;98632.13;4860636;29;20030;-88
2022/11/03 04:03:31;;;;;;;11.48;1.73;;;;;;;5.49;100.00;98642.59;4848321;29;20156;-89
2022/11/03 04:06:01;;;;;;;14.20;1.83;;;;;;;5.50;100.00;98639.81;4858850;29;20612;-88
2022/11/03 04:08:29;;;;;;;12.98;2.08;;;;;;;5.50;100.00;98641.63;4798051;29;20140;-88
2022/11/03 04:22:15;;;;;;;15.98;1.48;;;;;;;5.58;100.00;98634.63;4842414;29;20045;-88
2022/11/03 04:24:47;;;;;;;10.52;1.60;;;;;;;5.55;100.00;98623.63;4855838;29;20124;-88
2022/11/03 04:27:35;;;;;;;14.50;1.90;;;;;;;5.57;100.00;98627.72;4838706;29;20128;-87
2022/11/03 04:30:23;;;;;;;7.43;1.77;;;;;;;5.58;100.00;98628.56;4851444;29;20033;-88
2022/11/03 04:32:54;;;;;;;12.18;1.40;;;;;;;5.57;100.00;98632.16;4871311;29;20372;-87
2022/11/03 04:35:27;;;;;;;14.00;1.52;;;;;;;5.56;100.00;98617.41;4859552;29;20045;-88
2022/11/03 04:38:02;;;;;;;18.58;1.55;;;;;;;5.54;100.00;98614.13;4870034;29;20033;-88
2022/11/03 04:40:31;;;;;;;6.78;1.17;;;;;;;5.53;100.00;98615.09;4839951;29;20037;-88
2022/11/03 04:42:58;;;;;;;5.88;1.30;;;;;;;5.52;100.00;98606.44;4825471;29;20372;-88
2022/11/03 04:45:33;;;;;;;8.80;1.45;;;;;;;5.53;100.00;98602.00;4854269;29;20076;-88
2022/11/03 04:48:12;;;;;;;10.20;1.52;;;;;;;5.49;100.00;98601.50;4858957;29;20069;-88
2022/11/03 04:50:43;;;;;;;9.90;1.27;;;;;;;5.45;100.00;98603.59;4845946;29;20042;-88
2022/11/03 04:53:17;;;;;;;10.27;1.30;;;;;;;5.43;100.00;98602.13;4855644;29;20122;-88
2022/11/03 04:55:50;;;;;;;10.98;1.55;;;;;;;5.43;100.00;98602.13;4840774;29;20661;-89
2022/11/03 04:58:29;;;;;;;10.73;1.88;;;;;;;5.43;100.00;98600.31;4854640;29;20037;-89
2022/11/03 05:01:01;;;;;;;14.63;1.92;;;;;;;5.38;100.00;98592.13;4857653;29;20391;-88
2022/11/03 05:03:33;;;;;;;15.18;2.17;;;;;;;5.33;100.00;98594.38;4840824;29;20050;-88
2022/11/03 05:06:29;;;;;;;9.32;1.52;;;;;;;5.29;100.00;98599.09;4844526;29;20068;-87
2022/11/03 05:09:02;;;;;;;10.88;2.30;;;;;;;5.25;100.00;98591.72;4862809;29;20511;-87
2022/11/03 05:11:37;;;;;;;8.32;1.55;;;;;;;5.22;100.00;98593.66;4811971;29;20047;-88
2022/11/03 05:14:33;;;;;;;14.00;4.10;;;;;;;5.16;100.00;98602.16;4830729;29;20068;-89
2022/11/03 05:17:15;;;;;;;10.75;2.30;;;;;;;5.15;100.00;98597.06;4875236;29;20406;-88
2022/11/03 05:19:44;;;;;;;12.45;1.55;;;;;;;5.14;100.00;98601.50;4845644;29;20037;-88
2022/11/03 05:22:17;;;;;;;8.45;1.38;;;;;;;5.12;100.00;98594.75;4873553;29;20044;-88
2022/11/03 05:24:45;;;;;;;8.82;1.45;;;;;;;5.10;100.00;98594.91;4871503;29;20069;-88
2022/11/03 05:27:19;;;;;;;10.45;0.95;;;;;;;5.10;100.00;98592.28;4849760;29;20033;-88
2022/11/03 05:29:50;;;;;;;10.77;1.38;;;;;;;5.11;100.00;98595.75;4857037;29;20164;-88
2022/11/03 05:32:21;;;;;;;9.20;1.42;;;;;;;5.07;100.00;98592.59;4878797;29;20037;-88
2022/11/03 05:34:52;;;;;;;9.50;1.45;;;;;;;5.05;100.00;98595.38;4846247;29;20120;-88
2022/11/03 05:37:34;;;;;;;9.13;1.08;;;;;;;5.07;100.00;98595.22;4870849;29;20046;-88
2022/11/03 05:40:10;;;;;;;9.52;1.40;;;;;;;5.06;100.00;98590.97;4874480;29;20109;-88
2022/11/03 05:42:44;;;;;;;11.70;1.55;;;;;;;5.02;100.00;98585.22;4872751;29;20072;-87
2022/11/03 05:45:25;;;;;;;13.00;3.17;;;;;;;4.97;100.00;98590.91;4889501;29;20091;-88
2022/11/03 05:47:55;;;;;;;16.85;7.40;;;;;;;4.94;100.00;98596.44;4870268;29;20041;-88
2022/11/03 05:50:30;;;;;;;20.38;10.73;;;;;;;4.95;100.00;98582.38;4846410;29;20486;-88
2022/11/03 05:53:25;;;;;;;8.05;1.55;;;;;;;4.94;100.00;98582.53;4873100;29;20044;-88
2022/11/03 05:56:01;;;;;;;7.28;1.20;;;;;;;4.92;100.00;98580.06;4881811;29;20116;-87
2022/11/03 05:58:41;;;;;;;7.27;1.40;;;;;;;4.94;100.00;98577.28;4878942;29;20043;-87
2022/11/03 06:01:19;;;;;;;5.53;1.17;;;;;;;4.95;100.00;98579.75;4866812;29;20508;-88
2022/11/03 06:03:47;;;;;;;4.88;1.13;;;;;;;4.98;100.00;98581.28;4876992;29;20172;-88
2022/11/03 06:06:24;;;;;;;9.43;1.63;;;;;;;5.05;100.00;98565.75;4865133;29;20105;-88
2022/11/03 06:08:52;;;;;;;6.60;1.17;;;;;;;5.05;100.00;98566.56;4877277;29;20215;-88
2022/11/03 06:11:25;;;;;;;6.72;1.10;;;;;;;5.04;100.00;98564.94;4879515;29;20048;-87
2022/11/03 06:13:56;;;;;;;10.52;1.35;;;;;;;5.03;100.00;98560.66;4877269;29;20038;-88
2022/11/03 06:16:38;;;;;;;9.38;1.27;;;;;;;5.04;100.00;98556.25;4844528;29;20136;-87
2022/11/03 06:19:34;;;;;;;7.72;1.00;;;;;;;5.06;100.00;98552.53;4863942;29;20059;-87
2022/11/03 06:22:15;;;;;;;7.65;1.02;;;;;;;5.05;100.00;98552.66;4870604;29;20075;-88
2022/11/03 06:24:44;;;;;;;7.90;0.93;;;;;;;5.01;100.00;98546.91;4879166;29;20554;-88
2022/11/03 06:27:18;;;;;;;6.03;0.95;;;;;;;5.00;100.00;98550.50;4882828;29;20037;-88
2022/11/03 06:29:51;;;;;;;3.13;0.77;;;;;;;4.98;100.00;98542.00;4862817;29;20033;-88
2022/11/03 06:32:20;;;;;;;16.38;1.13;;;;;;;4.92;100.00;98537.38;4879033;29;20045;-88
2022/11/03 06:34:51;;;;;;;5.57;0.68;;;;;;;4.93;100.00;98541.63;4879326;29;20047;-88
2022/11/03 06:37:22;;;;;;;8.70;1.10;;;;;;;4.86;100.00;98530.94;4864566;29;20064;-88
2022/11/03 06:39:58;;;;;;;11.45;1.50;;;;;;;4.88;100.00;98533.41;4879465;29;20390;-87
2022/11/03 06:42:34;;;;;;;7.68;0.90;;;;;;;4.79;100.00;98535.16;4877929;29;20097;-89
2022/11/03 06:45:19;;;;;;;6.05;0.65;;;;;;;4.74;100.00;98535.63;4877799;29;20128;-87
2022/11/03 06:47:48;;;;;;;3.88;1.02;;;;;;;4.70;100.00;98532.50;4869960;29;20069;-88
2022/11/03 06:50:26;;;;;;;7.95;0.95;;;;;;;4.75;100.00;98537.25;4862844;29;20057;-88
2022/11/03 06:52:58;;;;;;;7.68;0.98;;;;;;;4.74;100.00;98534.81;4875221;29;20084;-87
2022/11/03 06:55:28;;;;;;;10.38;1.00;;;;;;;4.74;100.00;98526.94;4859294;29;20064;-88
2022/11/03 06:58:23;;;;;;;7.35;1.45;;;;;;;4.69;100.00;98525.63;4859863;29;20037;-88
2022/11/03 07:00:51;;;;;;;8.70;1.13;;;;;;;4.59;100.00;98524.88;4866054;29;20037;-88
2022/11/03 07:03:29;;;;;;;8.10;0.98;;;;;;;4.55;100.00;98515.72;4863032;29;20049;-87
2022/11/03 07:06:12;;;;;;;5.22;0.77;;;;;;;4.49;100.00;98518.94;4859728;29;20045;-88
2022/11/03 07:08:44;;;;;;;9.98;1.40;;;;;;;4.54;100.00;98509.66;4891309;29;20033;-89
2022/11/03 07:11:42;;;;;;;5.72;0.93;;;;;;;4.61;100.00;98509.03;4860432;29;20067;-88
2022/11/03 07:14:16;;;;;;;12.73;1.05;;;;;;;4.62;100.00;98514.13;4860662;29;20041;-87
2022/11/03 07:17:06;;;;;;;9.88;1.27;;;;;;;4.65;100.00;98513.81;4875613;29;20068;-88
2022/11/03 07:19:42;;;;;;;7.50;0.85;;;;;;;4.63;100.00;98509.72;4893621;29;20036;-88
2022/11/03 07:22:18;;;;;;;10.35;0.85;;;;;;;4.62;100.00;98502.84;4874702;29;20047;-88
2022/11/03 07:24:52;;;;;;;10.18;1.95;;;;;;;4.62;100.00;98502.84;4845033;29;20037;-88
2022/11/03 07:27:35;;;;;;;5.85;0.63;;;;;;;4.63;100.00;98502.69;4861450;29;20117;-88
2022/11/03 07:30:16;;;;;;;7.18;0.82;;;;;;;4.66;100.00;98497.16;4861322;29;20041;-88
2022/11/03 07:32:47;;;;;;;9.20;1.08;;;;;;;4.68;100.00;98504.84;4847894;29;20048;-88
2022/11/03 07:35:17;;;;;;;9.77;1.90;;;;;;;4.65;100.00;98518.25;4875592;29;20089;-88
2022/11/03 07:37:48;;;;;;;8.38;0.95;;;;;;;4.44;100.00;98520.22;4884691;29;20475;-88
2022/11/03 07:40:22;;;;;;;7.50;1.63;;;;;;;4.21;100.00;98523.31;4876646;29;20048;-88
2022/11/03 07:42:56;;;;;;;13.88;3.20;;;;;;;4.15;100.00;98536.16;4869830;29;20060;-88
2022/11/03 07:45:39;;;;;;;6.57;1.20;;;;;;;4.17;100.00;98529.81;4875712;29;20088;-87
2022/11/03 07:48:28;;;;;;;6.68;1.00;;;;;;;4.11;100.00;98532.22;4861910;29;20475;-87
2022/11/03 07:51:15;;;;;;;5.95;2.08;;;;;;;4.08;100.00;98528.94;4889066;29;20128;-86
2022/11/03 07:53:47;;;;;;;5.97;0.70;;;;;;;4.04;100.00;98532.00;4886211;29;20033;-87
2022/11/03 07:56:23;;;;;;;7.65;1.02;;;;;;;3.99;100.00;98524.59;4870601;29;20458;-88
2022/11/03 07:58:59;;;;;;;;;;;;;;;3.90;100.00;98523.69;4891709;29;20100;-88
2022/11/03 08:01:32;;;;;;;5.93;0.82;;;;;;;3.96;100.00;98517.88;4844122;29;20649;-88
2022/11/03 08:04:06;;;;;;;4.72;0.77;;;;;;;4.04;100.00;98517.13;4871762;29;20435;-87
2022/11/03 08:06:36;;;;;;;4.18;0.60;;;;;;;4.11;100.00;98519.16;4871448;29;20079;-88
2022/11/03 08:09:05;;;;;;;3.85;0.55;;;;;;;4.22;100.00;98513.69;4860737;29;20135;-88
2022/11/03 08:11:33;;;;;;;9.05;1.25;;;;;;;4.36;100.00;98504.47;4845102;29;20120;-88
2022/11/03 08:14:01;;;;;;;6.25;0.85;;;;;;;4.52;100.00;98502.94;4876138;29;20037;-88
2022/11/03 08:16:29;;;;;;;7.28;0.90;;;;;;;4.57;100.00;98501.50;4863857;29;20065;-88
2022/11/03 08:18:58;;;;;;;4.38;1.23;;;;;;;4.65;100.00;98494.69;4861411;29;20044;-88
2022/11/03 08:21:25;;;;;;;9.68;1.35;;;;;;;4.63;100.00;98489.59;4845031;29;20574;-88
2022/11/03 08:23:53;;;;;;;5.53;0.98;;;;;;;4.55;100.00;98485.16;4888776;29;20120;-87
2022/11/03 08:26:21;;;;;;;10.20;1.10;;;;;;;4.47;100.00;98487.72;4857648;29;20083;-87
2022/11/03 08:28:51;;;;;;;7.05;0.90;;;;;;;4.45;100.00;98492.25;4875155;29;20040;-87
2022/11/03 08:31:21;;;;;;;22.02;3.33;;;;;;;4.40;100.00;98492.72;4861869;29;20041;-88
2022/11/03 08:33:50;;;;;;;15.43;3.63;;;;;;;4.41;100.00;98489.13;4872662;29;20041;-88
2022/11/03 08:36:19;;;;;;;5.75;1.40;;;;;;;4.47;100.00;98485.09;4881495;29;20037;-88
2022/11/03 08:38:48;;;;;;;9.38;1.50;;;;;;;4.48;100.00;98476.25;4835744;29;20464;-88
2022/11/03 08:41:16;;;;;;;4.05;1.50;;;;;;;4.48;100.00;98481.50;4857731;29;20041;-88
2022/11/03 08:43:43;;;;;;;11.82;2.65;;;;;;;4.51;100.00;98477.75;4844458;29;20109;-88
2022/11/03 08:46:11;;;;;;;7.88;2.63;;;;;;;4.56;100.00;98484.16;4853860;29;20069;-88
2022/11/03 08:48:41;;;;;;;7.13;2.10;;;;;;;4.61;100.00;98482.88;4858304;29;20029;-88
2022/11/03 08:51:12;;;;;;;7.95;2.10;;;;;;;4.71;100.00;98473.94;4861315;29;20045;-88
2022/11/03 08:53:42;;;;;;;15.30;2.95;;;;;;;4.88;100.00;98481.88;4888849;29;20526;-88
2022/11/03 08:56:13;;;;;;;7.90;1.55;;;;;;;4.97;100.00;98475.69;4864656;29;20478;-87
2022/11/03 08:58:43;;;;;;;6.72;1.70;;;;;;;5.13;100.00;98470.72;4873785;29;20041;-87
2022/11/03 09:01:13;;;;;;;7.40;1.67;;;;;;;5.25;100.00;98464.19;4881972;29;20474;-88
2022/11/03 09:03:43;;;;;;;10.40;1.50;;;;;;;5.36;100.00;98468.31;4845714;29;20070;-87
2022/11/03 09:06:12;;;;;;;9.18;1.27;;;;;;;5.45;100.00;98464.72;4891932;29;20037;-88
2022/11/03 09:08:40;;;;;;;8.82;1.50;;;;;;;5.54;100.00;98465.56;4889680;29;20435;-87
2022/11/03 09:11:10;;;;;;;9.70;1.27;;;;;;;5.62;100.00;98456.09;4876422;29;20041;-87
2022/11/03 09:13:39;;;;;;;11.52;1.42;;;;;;;5.69;100.00;98447.41;4876273;29;20053;-88
2022/11/03 09:16:09;;;;;;;3.50;0.90;;;;;;;5.77;100.00;98432.66;4889161;29;20076;-87
2022/11/03 09:18:38;;;;;;;9.65;1.02;;;;;;;5.82;100.00;98433.00;4862445;29;20040;-88
2022/11/03 09:21:07;;;;;;;10.20;1.30;;;;;;;5.90;100.00;98433.00;4861320;29;20101;-88
2022/11/03 09:23:34;;;;;;;8.55;0.88;;;;;;;6.00;100.00;98438.09;4865450;29;20037;-90
2022/11/03 09:26:05;;;;;;;6.03;0.90;;;;;;;6.10;100.00;98432.69;4867134;29;20029;-90
2022/11/03 09:28:33;;;;;;;10.48;1.77;;;;;;;6.23;100.00;98426.16;4861634;29;20097;-91
2022/11/03 09:31:01;;;;;;;7.32;1.15;;;;;;;6.33;100.00;98422.34;4879949;29;20116;-90
2022/11/03 09:33:28;;;;;;;9.55;1.30;;;;;;;6.44;100.00;98418.53;4848439;29;20060;-90
2022/11/03 09:35:58;;;;;;;11.10;1.55;;;;;;;6.47;100.00;98427.88;4878063;29;20045;-87
2022/11/03 09:38:25;;;;;;;11.10;2.20;;;;;;;6.52;100.00;98422.97;4893945;29;20071;-87
2022/11/03 09:40:53;;;;;;;12.57;1.25;;;;;;;6.56;100.00;98413.75;4847861;29;20029;-88
2022/11/03 09:43:22;;;;;;;9.35;1.50;;;;;;;6.63;100.00;98419.16;4877643;29;20041;-88
2022/11/03 09:45:49;;;;;;;8.77;1.17;;;;;;;6.69;100.00;98426.34;4860766;29;20037;-88
2022/11/03 09:48:18;;;;;;;7.57;1.20;;;;;;;6.73;100.00;98412.88;4876738;29;20088;-87
2022/11/03 09:50:50;;;;;;;8.20;1.10;;;;;;;6.82;100.00;98404.81;4878106;29;20448;-88
2022/11/03 09:53:20;;;;;;;10.35;0.98;;;;;;;6.92;100.00;98414.28;4876381;29;20033;-88
2022/11/03 09:55:46;;;;;;;11.15;1.40;;;;;;;7.03;100.00;98395.53;4876282;29;20148;-88
2022/11/03 09:58:17;;;;;;;7.82;1.02;;;;;;;7.13;100.00;98390.06;4878869;29;20131;-88
2022/11/03 10:00:46;;;;;;;8.52;1.30;;;;;;;7.27;100.00;98395.53;4876901;29;20029;-87
2022/11/03 10:03:17;;;;;;;16.90;1.70;;;;;;;7.39;100.00;98383.63;4875147;29;20060;-88
2022/11/03 10:05:44;;;;;;;12.10;1.02;;;;;;;7.51;100.00;98384.06;4862656;29;20041;-90
2022/11/03 10:08:27;;;;;;;10.77;0.90;;;;;;;7.60;100.00;98373.50;4893040;29;20037;-90
2022/11/03 10:10:56;;;;;;;12.07;2.15;;;;;;;7.66;100.00;98362.25;4859791;29;20041;-91
2022/11/03 10:13:30;;;;;;;7.03;1.05;;;;;;;7.70;100.00;98363.53;4880066;29;20079;-90
2022/11/03 10:16:02;;;;;;;9.45;0.90;;;;;;;7.74;100.00;98367.44;4863780;29;20049;-90
2022/11/03 10:18:33;;;;;;;8.90;0.88;;;;;;;7.79;100.00;98362.47;4879604;29;20123;-90
2022/11/03 10:21:24;;;;;;;11.32;1.63;;;;;;;7.82;100.00;98362.09;4879907;29;20100;-91
2022/11/03 10:23:51;;;;;;;15.77;1.75;;;;;;;7.81;100.00;98363.13;4848610;29;20383;-89
2022/11/03 10:26:20;;;;;;;13.02;1.38;;;;;;;7.87;100.00;98360.78;4879825;29;20037;-90
2022/11/03 10:29:07;;;;;;;11.80;1.08;;;;;;;7.89;100.00;98354.34;4876203;29;20060;-90
2022/11/03 10:31:40;;;;;;;12.75;1.30;;;;;;;7.89;100.00;98348.25;4884163;29;20034;-88
2022/11/03 10:34:38;;;;;;;10.07;1.10;;;;;;;7.89;100.00;98343.81;4891063;29;20041;-91
2022/11/03 10:37:19;;;;;;;10.68;1.35;;;;;;;7.92;100.00;98346.09;4845880;29;20059;-91
2022/11/03 10:39:54;;;;;;;7.13;1.02;;;;;;;7.93;100.00;98342.44;4894310;29;20073;-89
2022/11/03 10:42:28;;;;;;;10.32;1.40;;;;;;;7.91;100.00;98348.88;4868678;29;20041;-84
2022/11/03 10:45:20;;;;;;;10.32;1.13;;;;;;;7.88;100.00;98342.19;4879426;29;20397;-84
2022/11/03 10:48:01;;;;;;;10.57;1.45;;;;;;;7.88;100.00;98341.34;4857961;29;20045;-91
2022/11/03 10:50:29;;;;;;;8.18;0.75;;;;;;;7.86;100.00;98333.66;4895561;29;20053;-86
2022/11/03 10:52:57;;;;;;;9.18;1.42;;;;;;;7.87;100.00;98340.53;4874388;29;20040;-87
2022/11/03 10:55:26;;;;;;;10.02;1.60;;;;;;;7.87;100.00;98340.53;4858170;29;20248;-93
2022/11/03 10:57:55;;;;;;;5.82;0.85;;;;;;;7.91;100.00;98341.81;4873316;29;20037;-88
2022/11/03 11:00:23;;;;;;;10.25;0.95;;;;;;;7.90;100.00;98340.19;4861590;29;20493;-89
2022/11/03 11:02:57;;;;;;;9.30;1.33;;;;;;;7.97;100.00;98339.44;4876129;29;20043;-89
2022/11/03 11:05:25;;;;;;;8.63;1.05;;;;;;;7.98;100.00;98344.53;4863653;29;20048;-92
2022/11/03 11:07:54;;;;;;;10.63;1.23;;;;;;;8.03;100.00;98344.00;4894140;29;20482;-92
2022/11/03 11:10:27;;;;;;;8.30;1.23;;;;;;;8.13;100.00;98351.63;4889403;29;20051;-87
2022/11/03 11:13:20;;;;;;;14.73;1.13;;;;;;;8.20;100.00;98347.28;4855905;29;20068;-93
2022/11/03 11:15:51;;;;;;;5.68;1.30;;;;;;;8.22;100.00;98349.75;4865431;29;20037;-90
2022/11/03 11:18:27;;;;;;;6.65;1.30;;;;;;;8.27;100.00;98350.00;4881127;29;20041;-91
2022/11/03 11:20:58;;;;;;;;;;;;;;;8.23;100.00;98348.75;4879470;29;20041;-91
2022/11/03 11:23:28;;;;;;;5.60;1.00;;;;;;;8.30;100.00;98337.31;4881889;29;19942;-90
2022/11/03 11:26:09;;;;;;;14.65;1.50;;;;;;;8.37;100.00;98347.94;4866723;29;20055;-90
2022/11/03 11:28:45;;;;;;;8.35;1.15;;;;;;;8.42;100.00;98336.84;4863276;29;20157;-90
2022/11/03 11:31:29;;;;;;;10.63;0.70;;;;;;;8.47;100.00;98339.75;4899664;29;20103;-88
2022/11/03 11:34:09;;;;;;;11.93;2.00;;;;;;;8.44;100.00;98335.66;4861161;29;20458;-88
2022/11/03 11:36:41;;;;;;;5.93;0.93;;;;;;;8.45;100.00;98336.47;4858320;29;20041;-89
2022/11/03 11:39:12;;;;;;;12.23;1.50;;;;;;;8.47;100.00;98339.75;4875776;29;20091;-89
2022/11/03 11:42:18;;;;;;;7.47;1.02;;;;;;;8.50;100.00;98328.88;4881324;29;20055;-89
2022/11/03 11:44:56;;;;;;;8.73;0.77;;;;;;;8.55;100.00;98329.13;4891222;29;20095;-89
2022/11/03 11:47:47;;;;;;;8.70;1.05;;;;;;;8.60;100.00;98336.47;4898948;29;20033;-89
2022/11/03 11:50:21;;;;;;;5.80;0.85;;;;;;;8.62;100.00;98331.84;4896857;29;20114;-88
2022/11/03 11:53:00;;;;;;;5.83;0.60;;;;;;;8.60;100.00;98333.84;4882386;29;20037;-87
2022/11/03 11:55:45;;;;;;;5.90;0.60;;;;;;;8.62;100.00;98338.94;4854738;29;20459;-89
2022/11/03 11:58:34;;;;;;;3.90;0.90;;;;;;;8.63;100.00;98330.84;4883196;29;20048;-89
2022/11/03 12:01:32;;;;;;;7.30;0.95;;;;;;;8.65;100.00;98331.50;4891746;29;20059;-89
2022/11/03 12:04:07;;;;;;;7.60;0.85;;;;;;;8.69;100.00;98329.31;4876905;29;20048;-89
2022/11/03 12:06:39;;;;;;;4.75;0.70;;;;;;;8.70;100.00;98325.66;4882748;29;20109;-90
2022/11/03 12:09:19;;;;;;;5.85;1.02;;;;;;;8.76;100.00;98314.38;4883213;29;20041;-89
2022/11/03 12:11:54;;;;;;;8.50;0.82;;;;;;;8.80;100.00;98313.03;4880242;29;20037;-89
2022/11/03 12:14:33;;;;;;;9.75;1.85;;;;;;;8.84;100.00;98302.91;4897931;29;20040;-89
2022/11/03 12:17:18;;;;;;;5.25;0.68;;;;;;;8.88;100.00;98313.91;4863222;29;20506;-89
2022/11/03 12:19:58;;;;;;;6.47;0.93;;;;;;;8.91;100.00;98311.72;4856017;29;20045;-89